Time;durP1;ratioP1;P1;durP2;ratioP2;P2;SDS_P1;SDS_P2;PMS_P1;PMS_P2;Temp;Humidity;BMP_temperature;BMP_pressure;BME280_temperature;BME280_humidity;BME280_pressure;Samples;Min_cycle;Max_cycle;Signal;HPM_P1;HPM_P2
2021/08/16 00:00:44;;;;;;;13.30;6.95;;;;;;;19.67;67.90;97435.16;5121482;28;20025;-77
2021/08/16 00:03:10;;;;;;;9.90;7.00;;;;;;;19.64;68.01;97435.47;5122391;27;20020;-78
2021/08/16 00:05:36;;;;;;;8.63;6.80;;;;;;;19.64;68.19;97442.75;5102569;28;20023;-77
2021/08/16 00:08:04;;;;;;;9.73;6.90;;;;;;;19.57;68.67;97420.78;5095903;28;20475;-77
2021/08/16 00:10:30;;;;;;;14.70;7.18;;;;;;;19.52;69.47;97417.69;5101857;28;20105;-77
2021/08/16 00:12:57;;;;;;;12.25;7.55;;;;;;;19.46;69.58;97416.47;5121947;27;20094;-77
2021/08/16 00:15:22;;;;;;;11.63;6.93;;;;;;;19.50;69.50;97408.00;5128058;28;20455;-78
2021/08/16 00:17:48;;;;;;;13.80;7.05;;;;;;;19.43;69.71;97418.63;5109958;28;20092;-77
2021/08/16 00:20:14;;;;;;;8.57;6.72;;;;;;;19.41;69.82;97413.34;5106305;28;20047;-77
2021/08/16 00:22:39;;;;;;;14.27;7.13;;;;;;;19.34;69.74;97416.78;5127503;28;20077;-77
2021/08/16 00:25:05;;;;;;;14.50;7.63;;;;;;;19.24;70.57;97421.41;5121757;27;20042;-77
2021/08/16 00:27:31;;;;;;;18.90;7.25;;;;;;;19.16;71.23;97416.75;5104464;28;20023;-77
2021/08/16 00:29:56;;;;;;;13.45;7.43;;;;;;;19.08;72.19;97415.78;5120335;28;20102;-79
2021/08/16 00:32:22;;;;;;;21.42;7.40;;;;;;;19.06;72.58;97424.09;5123639;28;20027;-77
2021/08/16 00:34:47;;;;;;;20.30;6.78;;;;;;;19.03;72.93;97412.69;5120548;27;20034;-77
2021/08/16 00:37:13;;;;;;;17.42;7.45;;;;;;;19.06;73.08;97415.09;5113143;28;20019;-77
2021/08/16 00:39:38;;;;;;;14.43;7.60;;;;;;;19.08;72.33;97426.63;5111563;27;20028;-77
2021/08/16 00:42:09;;;;;;;9.40;7.15;;;;;;;19.02;72.23;97411.81;5116044;27;20024;-77
2021/08/16 00:44:34;;;;;;;16.48;7.28;;;;;;;19.09;72.10;97423.78;5120773;28;20020;-77
2021/08/16 00:47:01;;;;;;;12.95;7.80;;;;;;;19.14;72.74;97398.91;5121045;28;20038;-77
2021/08/16 00:49:26;;;;;;;12.77;7.97;;;;;;;19.11;72.67;97407.34;5123935;28;20118;-77
2021/08/16 00:51:52;;;;;;;10.43;7.88;;;;;;;19.12;72.51;97418.06;5120005;28;20123;-77
2021/08/16 00:54:18;;;;;;;11.52;7.63;;;;;;;19.16;72.41;97407.78;5121682;28;20023;-77
2021/08/16 00:56:43;;;;;;;14.85;7.45;;;;;;;19.19;72.35;97405.63;5102857;28;20026;-77
2021/08/16 00:59:11;;;;;;;16.15;7.80;;;;;;;19.15;72.18;97406.06;5120709;27;20024;-77
2021/08/16 01:01:36;;;;;;;11.93;7.63;;;;;;;19.16;72.23;97407.78;5120725;27;20539;-77
2021/08/16 01:04:02;;;;;;;13.40;8.43;;;;;;;19.10;72.26;97403.81;5123445;27;20054;-77
2021/08/16 01:06:28;;;;;;;14.10;7.82;;;;;;;19.11;72.34;97410.91;5113921;27;20046;-77
2021/08/16 01:08:54;;;;;;;15.50;8.55;;;;;;;19.03;72.40;97402.69;5120393;27;20028;-77
2021/08/16 01:11:21;;;;;;;14.68;8.38;;;;;;;19.01;72.49;97412.00;5111552;28;20031;-77
2021/08/16 01:13:47;;;;;;;10.90;8.05;;;;;;;19.02;72.67;97417.25;5114886;27;20537;-77
2021/08/16 01:16:15;;;;;;;13.88;7.65;;;;;;;18.98;72.85;97415.00;5130760;27;20023;-77
2021/08/16 01:18:40;;;;;;;12.65;8.20;;;;;;;18.94;72.82;97404.47;5128371;27;20107;-76
2021/08/16 01:21:09;;;;;;;23.75;8.90;;;;;;;18.95;73.04;97413.41;5121423;27;20095;-76
2021/08/16 01:23:35;;;;;;;17.83;9.00;;;;;;;18.90;73.19;97410.31;5133384;27;20043;-76
2021/08/16 01:26:01;;;;;;;11.10;7.65;;;;;;;18.85;73.06;97404.50;5117180;27;20384;-76
2021/08/16 01:28:27;;;;;;;10.25;7.40;;;;;;;18.85;73.39;97408.06;5125899;27;20083;-77
2021/08/16 01:31:00;;;;;;;14.32;8.50;;;;;;;18.77;74.30;97407.94;5119027;27;20027;-76
2021/08/16 01:33:27;;;;;;;17.00;8.35;;;;;;;18.71;74.46;97400.41;5131938;27;20443;-76
2021/08/16 01:35:53;;;;;;;15.30;8.10;;;;;;;18.68;74.84;97397.16;5100435;27;20479;-75
2021/08/16 01:38:25;;;;;;;21.52;8.27;;;;;;;18.62;74.81;97395.88;5098847;28;20038;-76
2021/08/16 01:40:50;;;;;;;10.85;8.23;;;;;;;18.59;74.84;97393.47;5111081;27;20057;-77
2021/08/16 01:43:16;;;;;;;16.42;8.52;;;;;;;18.51;75.62;97396.09;5124624;27;20035;-76
2021/08/16 01:45:41;;;;;;;15.60;8.95;;;;;;;18.48;75.97;97388.22;5124609;27;20023;-76
2021/08/16 01:48:07;;;;;;;13.07;8.50;;;;;;;18.47;76.03;97394.63;5098130;28;20030;-76
2021/08/16 01:50:33;;;;;;;16.60;9.02;;;;;;;18.46;76.12;97387.50;5120927;27;20479;-76
2021/08/16 01:52:59;;;;;;;13.07;8.95;;;;;;;18.36;76.73;97387.50;5105165;28;20063;-76
2021/08/16 01:55:24;;;;;;;17.55;8.65;;;;;;;18.40;76.56;97397.06;5122251;27;20467;-77
2021/08/16 01:57:51;;;;;;;12.07;8.20;;;;;;;18.34;76.74;97399.50;5118316;27;20097;-77
2021/08/16 02:00:16;;;;;;;20.83;8.35;;;;;;;18.28;77.04;97394.69;5100961;27;20062;-77
2021/08/16 02:02:42;;;;;;;22.90;9.10;;;;;;;18.15;77.41;97389.56;5131285;27;20062;-76
2021/08/16 02:05:09;;;;;;;17.27;8.50;;;;;;;18.15;77.69;97405.81;5122557;27;20020;-76
2021/08/16 02:07:34;;;;;;;23.02;8.57;;;;;;;18.13;78.01;97401.56;5101296;27;20375;-76
2021/08/16 02:10:00;;;;;;;17.17;9.07;;;;;;;18.10;78.31;97396.44;5114902;27;20028;-76
2021/08/16 02:12:26;;;;;;;19.88;8.52;;;;;;;18.00;78.48;97401.84;5122561;27;20027;-76
2021/08/16 02:14:51;;;;;;;21.45;8.50;;;;;;;17.84;79.23;97390.78;5130814;27;20026;-76
2021/08/16 02:17:17;;;;;;;19.95;8.90;;;;;;;17.89;79.40;97402.03;5128430;27;20483;-76
2021/08/16 02:19:43;;;;;;;13.13;8.60;;;;;;;17.82;80.06;97404.44;5113371;27;20475;-77
2021/08/16 02:22:08;;;;;;;20.15;8.43;;;;;;;17.78;79.16;97402.19;5127215;27;20516;-76
2021/08/16 02:24:34;;;;;;;10.95;7.72;;;;;;;17.70;79.85;97392.06;5124335;27;20563;-77
2021/08/16 02:26:59;;;;;;;17.38;8.77;;;;;;;17.68;79.54;97398.63;5124620;27;20098;-78
2021/08/16 02:29:25;;;;;;;22.63;8.77;;;;;;;17.69;79.89;97408.41;5124194;27;20487;-78
2021/08/16 02:31:52;;;;;;;19.27;9.63;;;;;;;17.61;79.96;97395.63;5125839;27;20015;-77
2021/08/16 02:34:18;;;;;;;14.60;8.65;;;;;;;17.59;80.35;97394.91;5123339;27;20031;-77
2021/08/16 02:36:43;;;;;;;16.00;8.48;;;;;;;17.51;81.04;97396.56;5130808;27;20023;-77
2021/08/16 02:39:09;;;;;;;18.92;8.73;;;;;;;17.54;81.29;97394.44;5123143;27;20034;-77
2021/08/16 02:41:34;;;;;;;15.15;8.57;;;;;;;17.61;80.94;97394.75;5120912;27;20030;-78
2021/08/16 02:44:00;;;;;;;20.92;8.48;;;;;;;17.63;80.74;97396.31;5132172;27;20023;-77
2021/08/16 02:46:25;;;;;;;16.52;8.48;;;;;;;17.60;80.94;97398.44;5115219;27;20047;-77
2021/08/16 02:48:51;;;;;;;17.52;9.13;;;;;;;17.58;80.82;97406.72;5112821;27;20387;-77
2021/08/16 02:51:17;;;;;;;20.02;8.65;;;;;;;17.53;81.62;97394.59;5127592;27;20066;-77
2021/08/16 02:53:43;;;;;;;12.73;8.57;;;;;;;17.51;81.64;97408.25;5124801;27;20066;-77
2021/08/16 02:56:08;;;;;;;23.50;9.43;;;;;;;17.47;82.00;97397.88;5116686;27;20092;-77
2021/08/16 02:58:34;;;;;;;21.40;9.30;;;;;;;17.48;82.03;97403.13;5126682;27;20380;-77
2021/08/16 03:00:59;;;;;;;20.70;9.25;;;;;;;17.50;81.79;97409.25;5120770;27;20478;-77
2021/08/16 03:03:25;;;;;;;14.60;8.13;;;;;;;17.46;81.46;97407.81;5110674;28;20745;-77
2021/08/16 03:05:51;;;;;;;13.32;8.45;;;;;;;17.45;81.95;97408.81;5115156;27;20088;-77
2021/08/16 03:08:17;;;;;;;15.52;8.75;;;;;;;17.40;81.97;97405.69;5128096;27;20030;-77
2021/08/16 03:10:42;;;;;;;32.10;9.82;;;;;;;17.49;82.29;97415.66;5118984;27;20020;-77
2021/08/16 03:13:08;;;;;;;16.27;8.45;;;;;;;17.41;82.21;97407.38;5107967;27;20062;-77
2021/08/16 03:15:33;;;;;;;18.88;9.60;;;;;;;17.43;82.58;97413.50;5121339;27;20052;-77
2021/08/16 03:18:00;;;;;;;15.52;9.23;;;;;;;17.38;82.58;97410.34;5125169;27;20020;-77
2021/08/16 03:20:26;;;;;;;19.65;9.48;;;;;;;17.35;82.70;97416.91;5119276;27;20102;-76
2021/08/16 03:22:52;;;;;;;21.73;10.40;;;;;;;17.38;82.85;97410.34;5099047;27;20103;-77
2021/08/16 03:25:17;;;;;;;23.77;10.32;;;;;;;17.35;83.28;97399.81;5121330;27;20043;-76
2021/08/16 03:27:43;;;;;;;19.38;10.00;;;;;;;17.35;83.07;97405.22;5120266;27;20102;-76
2021/08/16 03:30:10;;;;;;;20.52;9.32;;;;;;;17.30;83.02;97407.50;5114429;27;20110;-77
2021/08/16 03:32:35;;;;;;;19.15;9.07;;;;;;;17.28;83.65;97404.09;5120699;27;20059;-76
2021/08/16 03:35:01;;;;;;;16.40;9.18;;;;;;;17.28;83.66;97401.41;5118322;27;20086;-76
2021/08/16 03:37:33;;;;;;;32.58;11.75;;;;;;;17.33;82.89;97413.50;5121372;27;20054;-76
2021/08/16 03:39:59;;;;;;;26.10;12.07;;;;;;;17.31;82.61;97409.22;5117896;27;20030;-76
2021/08/16 03:42:25;;;;;;;23.80;10.65;;;;;;;17.30;83.05;97407.50;5129371;27;20031;-76
2021/08/16 03:44:51;;;;;;;20.55;9.68;;;;;;;17.31;82.89;97407.38;5113765;27;20026;-76
2021/08/16 03:47:17;;;;;;;22.15;9.07;;;;;;;17.33;83.29;97409.94;5103643;27;20023;-77
2021/08/16 03:49:42;;;;;;;22.92;9.07;;;;;;;17.33;82.89;97421.59;5125626;27;20081;-76
2021/08/16 03:52:08;;;;;;;17.77;8.93;;;;;;;17.34;82.66;97406.25;5097829;27;20023;-77
2021/08/16 03:54:34;;;;;;;15.32;8.90;;;;;;;17.32;82.30;97410.91;5114102;27;20027;-75
2021/08/16 03:56:59;;;;;;;16.65;9.40;;;;;;;17.34;82.09;97422.47;5118548;27;20038;-76
2021/08/16 03:59:25;;;;;;;13.90;8.85;;;;;;;17.39;81.79;97419.31;5101557;28;20033;-78
2021/08/16 04:01:51;;;;;;;13.93;8.70;;;;;;;17.41;81.42;97404.66;5112606;28;20440;-78
2021/08/16 04:04:17;;;;;;;16.27;8.85;;;;;;;17.40;81.74;97416.50;5120575;28;20034;-75
2021/08/16 04:06:43;;;;;;;14.13;8.23;;;;;;;17.41;82.06;97418.19;5103417;28;20023;-78
2021/08/16 04:09:09;;;;;;;14.77;9.27;;;;;;;17.48;81.83;97416.63;5114249;28;20026;-76
2021/08/16 04:11:35;;;;;;;16.88;9.07;;;;;;;17.53;81.33;97408.97;5101719;28;20031;-76
2021/08/16 04:14:00;;;;;;;14.00;8.73;;;;;;;17.62;81.33;97421.69;5123470;28;20035;-78
2021/08/16 04:16:26;;;;;;;16.85;8.60;;;;;;;17.63;81.20;97415.25;5125994;27;20027;-78
2021/08/16 04:18:51;;;;;;;14.15;8.85;;;;;;;17.68;81.19;97421.13;5123237;28;20031;-76
2021/08/16 04:21:17;;;;;;;22.27;8.95;;;;;;;17.77;80.70;97420.25;5118824;28;20499;-77
2021/08/16 04:23:42;;;;;;;18.02;9.38;;;;;;;17.86;79.89;97411.28;5119587;27;20050;-75
2021/08/16 04:26:08;;;;;;;17.85;9.40;;;;;;;18.02;79.35;97426.09;5118531;28;20023;-78
2021/08/16 04:28:34;;;;;;;27.08;9.70;;;;;;;18.22;78.36;97425.91;5121998;28;20023;-77
2021/08/16 04:30:59;;;;;;;28.23;10.30;;;;;;;18.40;76.45;97428.72;5100545;28;20027;-75
2021/08/16 04:33:25;;;;;;;37.15;10.15;;;;;;;18.34;75.92;97413.03;5126311;27;20031;-76
2021/08/16 04:35:54;;;;;;;31.55;10.32;;;;;;;18.34;76.01;97421.16;5128128;27;20026;-75
2021/08/16 04:38:21;;;;;;;27.58;10.43;;;;;;;18.29;75.88;97420.75;5128799;27;20050;-76
2021/08/16 04:40:47;;;;;;;31.45;11.73;;;;;;;18.28;75.65;97421.75;5109284;27;20023;-75
2021/08/16 04:43:13;;;;;;;41.45;11.65;;;;;;;18.34;75.34;97432.00;5127607;27;20023;-76
2021/08/16 04:45:39;;;;;;;35.92;12.10;;;;;;;18.29;75.52;97423.47;5122985;27;20486;-76
2021/08/16 04:48:04;;;;;;;47.95;12.40;;;;;;;18.33;75.66;97428.44;5115055;27;20018;-76
2021/08/16 04:50:30;;;;;;;24.80;10.57;;;;;;;18.40;75.28;97436.84;5128985;27;20027;-76
2021/08/16 04:52:56;;;;;;;24.20;9.90;;;;;;;18.45;75.27;97433.72;5116765;27;20073;-76
2021/08/16 04:55:21;;;;;;;26.00;11.07;;;;;;;18.61;74.68;97434.81;5134320;27;20027;-79
2021/08/16 04:57:47;;;;;;;30.25;11.10;;;;;;;18.69;74.27;97432.25;5116748;27;20123;-82
2021/08/16 05:00:14;;;;;;;29.95;11.30;;;;;;;18.75;73.88;97437.06;5105285;28;20092;-83
2021/08/16 05:02:40;;;;;;;22.90;10.00;;;;;;;18.87;73.57;97435.88;5116308;27;20390;-81
2021/08/16 05:05:11;;;;;;;25.88;10.40;;;;;;;19.06;73.09;97442.22;5135165;27;20031;-80
2021/08/16 05:07:38;;;;;;;27.55;10.65;;;;;;;19.14;72.19;97436.88;5115459;27;20094;-81
2021/08/16 05:10:06;;;;;;;25.88;10.48;;;;;;;19.35;71.79;97445.59;5117278;27;20099;-82
2021/08/16 05:12:33;;;;;;;23.95;10.25;;;;;;;19.52;70.97;97447.53;5117892;27;20023;-80
2021/08/16 05:14:59;;;;;;;41.13;11.73;;;;;;;19.64;70.80;97443.59;5114833;27;20088;-79
2021/08/16 05:17:25;;;;;;;30.42;10.95;;;;;;;19.81;69.89;97450.88;5127089;27;20034;-81
2021/08/16 05:19:51;;;;;;;31.05;10.40;;;;;;;20.01;69.04;97448.88;5133667;27;20027;-80
2021/08/16 05:22:16;;;;;;;34.42;11.02;;;;;;;20.18;68.23;97444.47;5129876;27;20118;-80
2021/08/16 05:24:42;;;;;;;19.70;9.75;;;;;;;20.34;67.39;97441.88;5095924;28;20130;-79
2021/08/16 05:27:07;;;;;;;24.83;13.05;;;;;;;20.48;67.07;97438.63;5106522;27;20034;-80
2021/08/16 05:29:33;;;;;;;19.27;10.30;;;;;;;20.75;65.51;97440.31;5118920;27;20062;-80
2021/08/16 05:31:58;;;;;;;22.25;10.52;;;;;;;21.06;64.29;97431.47;5095909;28;20043;-80
2021/08/16 05:34:24;;;;;;;25.40;9.23;;;;;;;22.08;61.62;97434.88;5121840;27;20024;-80
2021/08/16 05:36:50;;;;;;;21.23;9.20;;;;;;;24.56;53.77;97437.84;5112875;28;20069;-80
2021/08/16 05:39:15;;;;;;;30.00;9.00;;;;;;;27.05;46.66;97440.06;5114208;28;20027;-78
2021/08/16 05:41:41;;;;;;;29.10;9.07;;;;;;;29.06;41.41;97422.75;5113874;28;20034;-80
2021/08/16 05:44:06;;;;;;;133.45;12.95;;;;;;;31.00;37.33;97438.81;5113637;28;20551;-79
2021/08/16 05:46:32;;;;;;;319.27;22.15;;;;;;;31.80;35.33;97431.41;5114732;28;20479;-79
2021/08/16 05:48:58;;;;;;;104.82;12.52;;;;;;;33.46;32.58;97430.34;5130338;27;20037;-78
2021/08/16 05:51:23;;;;;;;111.07;12.43;;;;;;;34.62;30.65;97426.41;5133251;27;20119;-80
2021/08/16 05:53:49;;;;;;;23.42;6.90;;;;;;;34.62;28.54;97418.06;5133208;27;20478;-80
2021/08/16 05:56:15;;;;;;;393.45;22.92;;;;;;;35.75;28.45;97424.09;5129854;27;20100;-79
2021/08/16 05:58:42;;;;;;;773.15;43.53;;;;;;;36.02;26.97;97420.56;5113590;28;20039;-80
2021/08/16 06:01:08;;;;;;;173.48;13.65;;;;;;;35.67;27.13;97418.16;5131436;27;20138;-80
2021/08/16 06:03:34;;;;;;;90.38;10.35;;;;;;;36.24;26.58;97413.06;5132967;27;20059;-80
2021/08/16 06:05:59;;;;;;;102.15;10.80;;;;;;;37.64;24.80;97406.25;5115290;27;20433;-80
2021/08/16 06:08:25;;;;;;;107.68;12.10;;;;;;;38.26;24.34;97414.66;5134154;27;20106;-80
2021/08/16 06:10:50;;;;;;;34.88;8.20;;;;;;;38.33;24.70;97410.47;5099139;28;20459;-81
2021/08/16 06:13:16;;;;;;;48.30;10.27;;;;;;;37.20;26.31;97416.81;5095113;28;20027;-81
2021/08/16 06:15:42;;;;;;;568.22;33.70;;;;;;;37.58;26.21;97410.97;5112130;28;20076;-80
2021/08/16 06:18:07;;;;;;;1054.88;70.55;;;;;;;37.31;26.23;97413.00;5111749;28;20108;-80
2021/08/16 06:20:33;;;;;;;320.73;18.02;;;;;;;36.52;27.59;97426.75;5108629;27;20031;-80
2021/08/16 06:22:58;;;;;;;42.50;9.35;;;;;;;37.51;26.09;97427.13;5132357;27;20083;-80
2021/08/16 06:25:24;;;;;;;34.35;8.13;;;;;;;36.63;26.73;97428.56;5115318;27;20027;-80
2021/08/16 06:27:49;;;;;;;382.67;24.83;;;;;;;37.98;25.21;97425.19;5115590;27;20026;-81
2021/08/16 06:30:15;;;;;;;76.45;9.13;;;;;;;35.98;27.13;97425.81;5115208;27;20109;-80
2021/08/16 06:32:41;;;;;;;75.15;8.57;;;;;;;37.33;25.76;97424.72;5132521;27;20462;-80
2021/08/16 06:35:07;;;;;;;234.57;17.98;;;;;;;37.76;25.09;97432.00;5132226;27;20436;-80
2021/08/16 06:37:33;;;;;;;188.52;15.10;;;;;;;36.70;26.17;97434.75;5115175;27;20031;-80
2021/08/16 06:39:58;;;;;;;212.98;14.50;;;;;;;37.64;25.01;97431.38;5132076;27;20034;-80
2021/08/16 06:42:24;;;;;;;48.25;8.60;;;;;;;38.91;23.37;97428.00;5131872;27;20032;-80
2021/08/16 06:44:49;;;;;;;66.70;8.82;;;;;;;39.42;23.29;97426.91;5115044;27;20084;-80
2021/08/16 06:47:15;;;;;;;32.80;7.38;;;;;;;40.22;22.02;97418.56;5131967;27;20030;-80
2021/08/16 06:49:40;;;;;;;131.77;11.38;;;;;;;41.17;20.82;97416.31;5117928;27;20114;-81
2021/08/16 06:52:06;;;;;;;97.93;11.45;;;;;;;42.15;19.86;97411.94;5111313;28;20023;-80
2021/08/16 06:54:32;;;;;;;494.45;30.63;;;;;;;41.68;20.42;97416.69;5112554;28;20027;-81
2021/08/16 06:56:58;;;;;;;120.70;11.82;;;;;;;41.96;20.08;97413.84;5127121;27;20049;-82
2021/08/16 06:59:24;;;;;;;19.17;7.47;;;;;;;41.77;20.05;97415.78;5131679;27;20027;-81
2021/08/16 07:01:50;;;;;;;97.63;13.55;;;;;;;40.70;20.76;97406.56;5114765;27;20030;-80
2021/08/16 07:04:15;;;;;;;674.33;41.78;;;;;;;41.90;20.33;97405.81;5131464;27;20042;-82
2021/08/16 07:06:41;;;;;;;367.88;27.25;;;;;;;41.25;20.63;97407.25;5114449;27;20034;-80
2021/08/16 07:09:06;;;;;;;124.75;10.98;;;;;;;41.34;20.81;97413.91;5131321;27;20054;-79
2021/08/16 07:11:32;;;;;;;13.48;5.82;;;;;;;39.80;22.09;97408.63;5127672;27;20115;-81
2021/08/16 07:13:58;;;;;;;1999.90;130.57;;;;;;;38.02;24.15;97403.13;5111102;28;20027;-80
2021/08/16 07:16:23;;;;;;;35.35;7.13;;;;;;;38.63;23.61;97408.91;5093877;28;20452;-80
2021/08/16 07:18:49;;;;;;;56.13;7.95;;;;;;;38.50;23.74;97415.88;5125671;27;20038;-81
2021/08/16 07:21:15;;;;;;;352.98;22.58;;;;;;;39.39;22.68;97407.00;5131380;27;20062;-81
2021/08/16 07:23:40;;;;;;;49.92;7.65;;;;;;;39.89;21.82;97406.91;5126641;27;20043;-81
2021/08/16 07:26:06;;;;;;;28.30;6.15;;;;;;;40.14;21.73;97406.00;5128805;27;20050;-82
2021/08/16 07:28:37;;;;;;;66.10;8.20;;;;;;;39.73;22.12;97412.84;5131310;27;20027;-81
2021/08/16 07:31:03;;;;;;;45.80;7.87;;;;;;;39.78;21.87;97405.25;5115023;27;20023;-84
2021/08/16 07:33:29;;;;;;;52.33;8.95;;;;;;;41.56;20.25;97415.13;5110552;27;20280;-81
2021/08/16 07:35:55;;;;;;;56.75;8.40;;;;;;;42.17;19.77;97408.88;5125869;27;20031;-81
2021/08/16 07:38:20;;;;;;;348.05;26.67;;;;;;;41.84;20.16;97402.19;5103346;28;20038;-81
2021/08/16 07:40:46;;;;;;;1200.88;91.15;;;;;;;42.16;19.91;97402.38;5111663;28;20023;-81
2021/08/16 07:43:13;;;;;;;1088.13;81.13;;;;;;;43.15;18.79;97391.09;5110529;27;20054;-81
2021/08/16 07:45:38;;;;;;;241.60;24.00;;;;;;;43.66;18.19;97391.03;5131049;27;20405;-81
2021/08/16 07:48:04;;;;;;;406.65;25.73;;;;;;;44.58;18.00;97397.31;5113711;28;20019;-81
2021/08/16 07:50:37;;;;;;;64.78;8.10;;;;;;;45.15;17.51;97390.03;5105204;28;20033;-84
2021/08/16 07:53:03;;;;;;;379.33;23.58;;;;;;;44.20;18.19;97385.47;5123540;27;20031;-82
2021/08/16 07:55:28;;;;;;;119.95;11.85;;;;;;;44.54;18.20;97387.00;5112542;28;20104;-82
2021/08/16 07:57:54;;;;;;;161.02;11.75;;;;;;;42.58;18.97;97366.94;5132351;27;20069;-82
2021/08/16 08:00:20;;;;;;;154.68;13.55;;;;;;;40.34;20.77;97366.63;5130919;27;20035;-81
2021/08/16 08:02:47;;;;;;;495.75;27.55;;;;;;;40.89;21.09;97371.03;5113627;28;20034;-82
2021/08/16 08:05:17;;;;;;;339.02;21.70;;;;;;;41.13;20.41;97368.34;5113819;28;20099;-82
2021/08/16 08:07:43;;;;;;;44.97;7.80;;;;;;;41.50;19.78;97359.28;5110177;28;20463;-82
2021/08/16 08:10:10;;;;;;;323.85;19.83;;;;;;;43.16;18.52;97365.44;5114007;28;20024;-82
2021/08/16 08:12:36;;;;;;;181.80;14.50;;;;;;;44.74;17.26;97369.56;5115478;28;20023;-83
2021/08/16 08:15:03;;;;;;;261.83;17.00;;;;;;;45.07;16.03;97362.53;5129698;27;20393;-81
2021/08/16 08:17:29;;;;;;;1999.90;172.23;;;;;;;44.76;16.31;97359.63;5135917;27;20027;-82
2021/08/16 08:19:55;;;;;;;11.98;4.40;;;;;;;46.18;14.21;97345.34;5134980;27;20397;-82
2021/08/16 08:22:21;;;;;;;13.45;3.85;;;;;;;47.16;12.56;97340.00;5116857;27;20027;-82
2021/08/16 08:24:46;;;;;;;525.22;35.22;;;;;;;48.03;12.87;97343.38;5126931;27;20412;-83
2021/08/16 08:27:13;;;;;;;101.40;11.52;;;;;;;47.86;12.66;97344.28;5134756;27;20030;-83
2021/08/16 08:29:40;;;;;;;141.15;13.45;;;;;;;48.09;12.59;97337.16;5135768;27;20126;-83
2021/08/16 08:32:06;;;;;;;313.80;18.90;;;;;;;48.15;12.85;97332.94;5134892;27;20042;-84
2021/08/16 08:34:32;;;;;;;317.60;21.83;;;;;;;47.43;12.65;97324.56;5134440;27;20053;-82
2021/08/16 08:36:57;;;;;;;777.85;65.43;;;;;;;46.94;12.90;97319.47;5134403;27;20019;-83
2021/08/16 08:39:23;;;;;;;460.63;26.05;;;;;;;48.24;11.93;97319.56;5125954;27;20055;-83
2021/08/16 08:41:49;;;;;;;80.47;8.50;;;;;;;48.74;12.17;97321.53;5126112;27;20037;-84
2021/08/16 08:44:15;;;;;;;143.00;10.55;;;;;;;49.53;11.33;97323.31;5118266;27;20023;-83
2021/08/16 08:46:41;;;;;;;1973.93;145.13;;;;;;;47.83;12.11;97308.91;5118083;27;20030;-84
2021/08/16 08:49:08;;;;;;;1089.75;73.07;;;;;;;47.21;12.58;97299.28;5134611;27;20034;-82
2021/08/16 08:51:37;;;;;;;14.20;4.55;;;;;;;47.49;12.31;97305.34;5115345;27;20035;-82
2021/08/16 08:54:07;;;;;;;17.20;3.95;;;;;;;46.90;12.72;97307.97;5111349;27;20104;-84
2021/08/16 08:56:33;;;;;;;145.63;11.80;;;;;;;47.34;12.47;97304.75;5135529;27;20034;-82
2021/08/16 08:58:58;;;;;;;65.63;7.07;;;;;;;48.01;11.71;97303.16;5129298;27;20020;-83
2021/08/16 09:01:25;;;;;;;5.47;3.15;;;;;;;48.38;10.51;97290.91;5123761;27;20132;-82
2021/08/16 09:03:53;;;;;;;19.58;4.75;;;;;;;48.67;10.11;97292.88;5134926;27;20037;-84
2021/08/16 09:06:33;;;;;;;42.42;3.85;;;;;;;47.89;9.99;97275.50;5132122;27;20039;-82
2021/08/16 09:08:59;;;;;;;25.30;3.85;;;;;;;48.54;9.96;97286.28;5123976;27;20047;-82
2021/08/16 09:11:27;;;;;;;6.93;3.70;;;;;;;46.65;11.17;97272.81;5096062;28;20031;-82
2021/08/16 09:13:59;;;;;;;5.47;3.00;;;;;;;46.42;11.63;97277.00;5109014;27;20023;-82
2021/08/16 09:16:27;;;;;;;5.47;3.25;;;;;;;47.57;11.23;97276.13;5124963;27;20019;-81
2021/08/16 09:18:53;;;;;;;12.73;3.92;;;;;;;48.15;10.64;97267.66;5115740;27;20027;-82
2021/08/16 09:21:31;;;;;;;14.18;3.70;;;;;;;47.09;11.00;97268.75;5100181;28;20043;-83
2021/08/16 09:23:57;;;;;;;3.05;2.55;;;;;;;46.13;11.41;97260.63;5113189;28;20562;-83
2021/08/16 09:26:28;;;;;;;3.25;2.95;;;;;;;47.07;10.98;97248.41;5121313;27;20079;-83
2021/08/16 09:28:54;;;;;;;;;;;;;;;47.63;10.80;97255.75;5116893;27;20478;-82
2021/08/16 09:31:23;;;;;;;17.73;3.47;;;;;;;48.76;10.48;97262.38;5133480;27;19915;-83
2021/08/16 09:33:57;;;;;;;29.88;3.83;;;;;;;49.50;9.62;97255.75;5121874;27;20024;-83
2021/08/16 09:36:39;;;;;;;8.80;3.13;;;;;;;49.33;9.82;97251.91;5112217;27;20053;-83
2021/08/16 09:39:17;;;;;;;6.38;3.22;;;;;;;49.79;9.72;97249.84;5116288;27;20019;-84
2021/08/16 09:41:42;;;;;;;6.57;2.88;;;;;;;49.91;9.47;97249.81;5133535;27;20038;-83
2021/08/16 09:44:11;;;;;;;5.70;3.20;;;;;;;50.83;9.18;97258.44;5129525;27;20023;-83
2021/08/16 09:46:37;;;;;;;10.48;3.20;;;;;;;51.16;8.95;97258.19;5130715;27;20023;-83
2021/08/16 09:49:04;;;;;;;7.55;3.30;;;;;;;50.89;8.73;97242.72;5128516;27;20490;-83
2021/08/16 09:51:33;;;;;;;3.00;2.70;;;;;;;50.20;9.04;97241.03;5121270;27;20088;-83
2021/08/16 09:53:59;;;;;;;8.30;2.83;;;;;;;49.49;9.42;97226.44;5105677;28;20023;-83
2021/08/16 09:56:26;;;;;;;10.73;3.22;;;;;;;47.70;10.11;97221.19;5128608;27;20027;-83
2021/08/16 09:58:52;;;;;;;105.80;8.27;;;;;;;45.59;11.59;97213.88;5121179;27;20024;-83
2021/08/16 10:01:17;;;;;;;27.35;4.93;;;;;;;45.83;10.85;97213.44;5127714;27;20034;-82
2021/08/16 10:03:43;;;;;;;114.68;11.05;;;;;;;47.09;10.68;97217.75;5132604;27;20031;-81
2021/08/16 10:06:13;;;;;;;2.50;2.30;;;;;;;46.94;10.40;97208.97;5132941;27;20220;-82
2021/08/16 10:08:40;;;;;;;6.32;3.05;;;;;;;47.13;10.21;97207.38;5114474;27;20024;-81
2021/08/16 10:11:07;;;;;;;20.90;3.13;;;;;;;48.17;9.84;97208.53;5120818;27;20027;-83
2021/08/16 10:13:37;;;;;;;4.63;2.90;;;;;;;47.59;10.03;97202.91;5112061;28;20027;-82
2021/08/16 10:16:08;;;;;;;6.73;3.33;;;;;;;48.45;9.85;97205.97;5126080;27;20110;-82
2021/08/16 10:18:39;;;;;;;9.07;2.80;;;;;;;49.96;9.19;97204.03;5132475;27;20501;-82
2021/08/16 10:21:05;;;;;;;400.77;22.27;;;;;;;50.32;9.32;97198.31;5107659;27;20062;-82
2021/08/16 10:23:30;;;;;;;13.50;4.07;;;;;;;51.03;9.19;97210.97;5115256;27;20458;-83
2021/08/16 10:25:57;;;;;;;27.30;4.18;;;;;;;50.13;9.29;97194.41;5086786;28;20035;-83
2021/08/16 10:28:23;;;;;;;50.75;6.50;;;;;;;49.37;9.96;97193.16;5110037;27;20401;-82
2021/08/16 10:30:49;;;;;;;10.90;2.40;;;;;;;49.19;9.82;97190.84;5129536;27;20034;-82
2021/08/16 10:33:15;;;;;;;14.10;3.45;;;;;;;49.97;9.11;97184.94;5127142;27;20386;-82
2021/08/16 10:35:40;;;;;;;6.88;2.80;;;;;;;50.56;8.98;97185.13;5131934;27;20402;-82
2021/08/16 10:38:08;;;;;;;7.93;3.25;;;;;;;50.31;8.94;97182.41;5133396;27;20024;-82
2021/08/16 10:40:50;;;;;;;28.42;4.75;;;;;;;47.83;9.98;97164.19;5132227;27;20034;-82
2021/08/16 10:43:17;;;;;;;17.83;3.63;;;;;;;48.27;10.30;97176.88;5132125;27;20478;-83
2021/08/16 10:45:53;;;;;;;8.18;3.38;;;;;;;49.96;9.55;97174.75;5097261;28;20037;-82
2021/08/16 10:48:29;;;;;;;6.25;3.00;;;;;;;51.05;8.95;97172.31;5108584;27;20022;-82
2021/08/16 10:51:05;;;;;;;60.63;7.28;;;;;;;51.20;8.56;97170.66;5131868;27;20030;-82
2021/08/16 10:53:33;;;;;;;13.32;4.60;;;;;;;51.28;9.00;97161.09;5132109;27;20500;-82
2021/08/16 10:55:59;;;;;;;12.23;3.28;;;;;;;51.83;8.55;97163.75;5123303;27;20093;-82
2021/08/16 10:58:25;;;;;;;4.50;3.10;;;;;;;52.22;8.08;97156.06;5131679;27;20558;-82
2021/08/16 11:00:50;;;;;;;6.72;2.80;;;;;;;52.18;7.95;97158.00;5114237;27;20031;-82
2021/08/16 11:03:23;;;;;;;7.13;2.90;;;;;;;52.55;8.11;97157.63;5131672;27;20030;-82
2021/08/16 11:05:48;;;;;;;542.08;42.15;;;;;;;50.23;9.22;97140.63;5121838;27;20121;-81
2021/08/16 11:08:14;;;;;;;149.10;9.48;;;;;;;49.72;9.49;97138.59;5107224;27;20498;-83
2021/08/16 11:10:45;;;;;;;629.88;34.20;;;;;;;50.12;9.28;97135.81;5131636;27;20083;-82
2021/08/16 11:13:19;;;;;;;20.20;4.25;;;;;;;50.76;9.35;97138.53;5110125;28;20032;-83
2021/08/16 11:15:46;;;;;;;388.42;25.83;;;;;;;51.13;8.73;97136.28;5128257;27;20402;-82
2021/08/16 11:18:21;;;;;;;24.75;3.75;;;;;;;51.12;8.53;97126.88;5114073;27;20035;-82